Time;durP1;ratioP1;P1;durP2;ratioP2;P2;SDS_P1;SDS_P2;PMS_P1;PMS_P2;Temp;Humidity;BMP_temperature;BMP_pressure;BME280_temperature;BME280_humidity;BME280_pressure;Samples;Min_cycle;Max_cycle;Signal;HPM_P1;HPM_P2
2022/11/19 00:01:58;;;;;;;18.15;7.63;;;;;;;;;;5080061;28;20486;-58
2022/11/19 00:04:23;;;;;;;12.98;8.20;;;;;;;;;;5084426;28;20016;-58
2022/11/19 00:06:49;;;;;;;14.85;7.57;;;;;;;;;;5082024;28;20048;-59
2022/11/19 00:09:15;;;;;;;14.63;7.65;;;;;;;;;;5079608;28;20107;-59
2022/11/19 00:14:24;;;;;;;11.50;7.18;;;;;;;;;;5091214;28;20034;-58
2022/11/19 00:16:49;;;;;;;13.13;7.95;;;;;;;;;;5083996;28;20182;-57
2022/11/19 00:19:15;;;;;;;15.63;7.00;;;;;;;;;;5093064;28;20469;-57
2022/11/19 00:21:40;;;;;;;18.67;7.97;;;;;;;;;;5082860;28;20472;-57
2022/11/19 00:24:05;;;;;;;12.90;7.65;;;;;;;;;;5076880;28;20078;-57
2022/11/19 00:26:31;;;;;;;16.02;8.68;;;;;;;;;;5078703;28;20028;-58
2022/11/19 00:28:56;;;;;;;16.42;8.98;;;;;;;;;;5076101;28;20019;-58
2022/11/19 00:31:21;;;;;;;15.85;8.05;;;;;;;;;;5076140;28;20214;-58
2022/11/19 00:33:49;;;;;;;14.48;8.23;;;;;;;;;;5085434;28;20048;-57
2022/11/19 00:36:14;;;;;;;12.15;8.38;;;;;;;;;;5084682;28;20028;-58
2022/11/19 00:38:39;;;;;;;15.50;9.27;;;;;;;;;;5078429;28;20073;-57
2022/11/19 00:41:05;;;;;;;18.98;8.32;;;;;;;;;;5086043;28;20126;-58
2022/11/19 00:43:48;;;;;;;15.98;8.50;;;;;;;;;;5085534;28;20024;-57
2022/11/19 00:46:21;;;;;;;18.70;8.40;;;;;;;;;;5077240;28;20040;-57
2022/11/19 00:48:47;;;;;;;14.60;8.50;;;;;;;;;;5075221;28;20012;-57
2022/11/19 00:51:12;;;;;;;14.43;8.35;;;;;;;;;;5082964;28;20039;-57
2022/11/19 00:53:37;;;;;;;17.08;8.93;;;;;;;;;;5093710;28;20184;-57
2022/11/19 00:56:04;;;;;;;12.52;8.50;;;;;;;;;;5090634;28;20027;-57
2022/11/19 00:58:29;;;;;;;16.02;9.23;;;;;;;;;;5084066;28;20051;-57
2022/11/19 01:00:54;;;;;;;17.08;9.27;;;;;;;;;;5080872;28;20604;-57
2022/11/19 01:03:20;;;;;;;14.07;9.00;;;;;;;;;;5074951;28;20024;-57
2022/11/19 01:05:45;;;;;;;15.15;8.80;;;;;;;;;;5083326;28;20019;-57
2022/11/19 01:08:10;;;;;;;16.42;9.50;;;;;;;;;;5082068;28;20062;-57
2022/11/19 01:10:36;;;;;;;16.98;9.02;;;;;;;;;;5085098;28;20036;-57
2022/11/19 01:15:48;;;;;;;17.80;8.15;;;;;;;;;;5075577;28;20077;-57
2022/11/19 01:18:14;;;;;;;13.15;8.02;;;;;;;;;;5109162;27;20447;-58
2022/11/19 01:20:39;;;;;;;15.10;8.20;;;;;;;;;;5083906;28;20051;-57
2022/11/19 01:23:04;;;;;;;15.63;7.78;;;;;;;;;;5083725;28;20059;-57
2022/11/19 01:25:29;;;;;;;12.93;7.15;;;;;;;;;;5083870;28;20012;-57
2022/11/19 01:27:56;;;;;;;14.10;8.02;;;;;;;;;;5076503;28;20524;-57
2022/11/19 01:30:21;;;;;;;17.50;8.57;;;;;;;;;;5109145;27;20548;-57
2022/11/19 01:32:47;;;;;;;16.70;9.10;;;;;;;;;;5083216;28;20027;-57
2022/11/19 01:35:12;;;;;;;18.08;8.85;;;;;;;;;;5075194;28;20078;-57
2022/11/19 01:37:37;;;;;;;19.98;8.57;;;;;;;;;;5083386;28;20059;-57
2022/11/19 01:40:02;;;;;;;18.33;9.13;;;;;;;;;;5085006;28;20026;-57
2022/11/19 01:45:21;;;;;;;16.95;8.70;;;;;;;;;;5072682;28;20035;-57
2022/11/19 01:47:47;;;;;;;19.17;7.95;;;;;;;;;;5076880;28;20105;-57
2022/11/19 01:50:12;;;;;;;19.20;8.38;;;;;;;;;;5080478;28;20052;-57
2022/11/19 01:52:38;;;;;;;17.17;7.80;;;;;;;;;;5080013;28;20166;-58
2022/11/19 01:55:04;;;;;;;17.35;8.23;;;;;;;;;;5074589;28;20433;-57
2022/11/19 01:57:29;;;;;;;18.52;8.30;;;;;;;;;;5092674;28;20017;-58
2022/11/19 01:59:54;;;;;;;18.58;8.65;;;;;;;;;;5083877;28;20016;-57
2022/11/19 02:02:21;;;;;;;17.00;8.82;;;;;;;;;;5071414;28;20047;-58
2022/11/19 02:04:49;;;;;;;16.95;8.75;;;;;;;;;;5089067;28;20055;-58
2022/11/19 02:07:15;;;;;;;16.02;8.25;;;;;;;;;;5083911;28;20040;-57
2022/11/19 02:09:40;;;;;;;17.65;9.07;;;;;;;;;;5089955;28;20023;-57
2022/11/19 02:12:08;;;;;;;21.80;8.63;;;;;;;;;;5083926;28;20173;-58
2022/11/19 02:14:37;;;;;;;15.43;8.68;;;;;;;;;;5079964;28;20028;-57
2022/11/19 02:17:21;;;;;;;18.27;9.13;;;;;;;;;;5082263;28;20032;-58
2022/11/19 02:19:52;;;;;;;20.58;9.07;;;;;;;;;;5079390;28;20031;-58
2022/11/19 02:22:25;;;;;;;17.80;8.85;;;;;;;;;;5081382;28;20032;-58
2022/11/19 02:24:50;;;;;;;19.45;8.73;;;;;;;;;;5081205;28;20614;-58
2022/11/19 02:27:21;;;;;;;14.20;8.80;;;;;;;;;;5075159;28;20153;-57
2022/11/19 02:30:01;;;;;;;17.10;9.60;;;;;;;;;;5078661;28;20031;-57
2022/11/19 02:32:33;;;;;;;17.48;9.32;;;;;;;;;;5082397;28;20031;-57
2022/11/19 02:35:13;;;;;;;14.18;9.20;;;;;;;;;;5081700;28;20386;-57
2022/11/19 02:37:41;;;;;;;17.00;8.77;;;;;;;;;;5084687;28;20023;-57
2022/11/19 02:40:08;;;;;;;17.83;8.52;;;;;;;;;;5080561;28;20426;-57
2022/11/19 02:42:49;;;;;;;22.33;9.15;;;;;;;;;;5110261;27;20036;-57
2022/11/19 02:45:32;;;;;;;17.00;9.32;;;;;;;;;;5090329;28;20484;-58
2022/11/19 02:48:03;;;;;;;18.15;9.10;;;;;;;;;;5113289;27;20115;-59
2022/11/19 02:50:49;;;;;;;17.52;9.55;;;;;;;;;;5078544;28;20031;-59
2022/11/19 02:53:14;;;;;;;17.20;8.55;;;;;;;;;;5080864;28;20051;-59
2022/11/19 02:55:40;;;;;;;24.35;9.30;;;;;;;;;;5076729;28;20549;-59
2022/11/19 02:58:09;;;;;;;19.70;9.57;;;;;;;;;;5073571;28;20020;-59
2022/11/19 03:06:16;;;;;;;18.23;10.13;;;;;;;;;;5080638;28;20043;-58
2022/11/19 03:08:42;;;;;;;17.73;9.68;;;;;;;;;;5077892;28;20445;-59
2022/11/19 03:11:07;;;;;;;16.85;9.27;;;;;;;;;;5086562;28;20100;-59
2022/11/19 03:16:42;;;;;;;18.88;9.40;;;;;;;;;;5081836;28;20079;-59
2022/11/19 03:19:27;;;;;;;13.52;8.38;;;;;;;;;;5078259;28;20029;-57
2022/11/19 03:21:56;;;;;;;13.70;8.48;;;;;;;;;;5074808;28;20032;-57
2022/11/19 03:24:29;;;;;;;16.05;9.35;;;;;;;;;;5077621;28;20024;-58
2022/11/19 03:26:56;;;;;;;18.25;10.07;;;;;;;;;;5080950;28;20490;-57
2022/11/19 03:29:21;;;;;;;24.23;12.25;;;;;;;;;;5117733;27;20185;-57
2022/11/19 03:31:47;;;;;;;21.88;12.52;;;;;;;;;;5077175;28;20063;-57
2022/11/19 03:34:17;;;;;;;25.65;14.48;;;;;;;;;;5107272;27;20029;-57
2022/11/19 03:36:42;;;;;;;21.10;13.27;;;;;;;;;;5118446;27;20115;-59
2022/11/19 03:39:08;;;;;;;21.20;12.90;;;;;;;;;;5075959;28;20103;-59
2022/11/19 03:41:34;;;;;;;13.48;8.32;;;;;;;;;;5082879;28;20418;-57
2022/11/19 03:44:04;;;;;;;14.50;8.13;;;;;;;;;;5080085;28;21413;-57
2022/11/19 03:46:30;;;;;;;13.25;7.82;;;;;;;;;;5117866;27;20028;-57
2022/11/19 03:48:55;;;;;;;10.73;6.07;;;;;;;;;;5090667;28;20501;-57
2022/11/19 03:51:23;;;;;;;7.47;5.05;;;;;;;;;;5084259;28;20024;-57
2022/11/19 03:53:48;;;;;;;7.80;4.85;;;;;;;;;;5083173;28;20107;-58
2022/11/19 03:56:14;;;;;;;11.07;5.22;;;;;;;;;;5083095;28;20028;-59
2022/11/19 03:58:39;;;;;;;8.13;4.68;;;;;;;;;;5085147;28;20024;-58
2022/11/19 04:01:05;;;;;;;8.55;5.20;;;;;;;;;;5084317;28;20024;-58
2022/11/19 04:03:30;;;;;;;8.55;4.45;;;;;;;;;;5086959;28;20028;-59
2022/11/19 04:05:55;;;;;;;6.35;4.38;;;;;;;;;;5082956;28;20035;-59
2022/11/19 04:08:20;;;;;;;9.48;4.60;;;;;;;;;;5076448;28;20035;-59
2022/11/19 04:10:46;;;;;;;7.20;4.15;;;;;;;;;;5081443;28;20102;-57
2022/11/19 04:13:11;;;;;;;6.53;4.03;;;;;;;;;;5084822;28;20461;-59
2022/11/19 04:15:36;;;;;;;5.45;3.72;;;;;;;;;;5090743;28;20111;-59
2022/11/19 04:18:01;;;;;;;6.50;3.97;;;;;;;;;;5076815;28;20070;-58
2022/11/19 04:20:26;;;;;;;6.88;4.25;;;;;;;;;;5085751;28;20091;-58
2022/11/19 04:22:52;;;;;;;6.68;4.28;;;;;;;;;;5089243;28;20032;-59
2022/11/19 04:25:17;;;;;;;10.15;4.13;;;;;;;;;;5077411;28;20031;-58
2022/11/19 04:27:44;;;;;;;5.82;4.00;;;;;;;;;;5086222;28;20110;-58
2022/11/19 04:30:09;;;;;;;6.20;4.22;;;;;;;;;;5077843;28;20012;-58
2022/11/19 04:32:34;;;;;;;7.60;4.55;;;;;;;;;;5088895;28;20495;-57
2022/11/19 04:35:02;;;;;;;8.55;5.43;;;;;;;;;;5080847;28;20331;-56
2022/11/19 04:37:27;;;;;;;8.73;5.45;;;;;;;;;;5092181;28;20498;-57
2022/11/19 04:39:53;;;;;;;7.55;5.30;;;;;;;;;;5097082;28;20042;-56
2022/11/19 04:42:18;;;;;;;8.93;5.53;;;;;;;;;;5080301;28;20098;-57
2022/11/19 04:44:43;;;;;;;8.65;5.47;;;;;;;;;;5080878;28;20557;-59
2022/11/19 04:47:08;;;;;;;9.65;6.25;;;;;;;;;;5088030;28;20028;-58
2022/11/19 04:49:33;;;;;;;8.95;5.65;;;;;;;;;;5082212;28;20078;-59
2022/11/19 04:51:59;;;;;;;10.38;6.15;;;;;;;;;;5090609;28;20043;-58
2022/11/19 04:54:24;;;;;;;9.43;5.95;;;;;;;;;;5088525;28;20024;-58
2022/11/19 04:56:49;;;;;;;8.73;6.07;;;;;;;;;;5084651;28;20047;-58
2022/11/19 04:59:14;;;;;;;10.38;6.60;;;;;;;;;;5083222;28;20069;-56
2022/11/19 05:01:40;;;;;;;9.43;5.82;;;;;;;;;;5081173;28;20036;-58
2022/11/19 05:04:05;;;;;;;10.25;6.25;;;;;;;;;;5077038;28;20291;-58
2022/11/19 05:06:30;;;;;;;9.75;6.18;;;;;;;;;;5077714;28;20045;-58
2022/11/19 05:08:55;;;;;;;10.13;6.57;;;;;;;;;;5082880;28;20371;-58
2022/11/19 05:11:21;;;;;;;11.07;6.38;;;;;;;;;;5084375;28;20024;-58
2022/11/19 05:13:46;;;;;;;11.30;6.75;;;;;;;;;;5086781;28;20062;-58
2022/11/19 05:16:11;;;;;;;9.77;5.85;;;;;;;;;;5071551;28;20060;-59
2022/11/19 05:18:37;;;;;;;9.70;5.25;;;;;;;;;;5086216;28;20024;-59
2022/11/19 05:21:02;;;;;;;11.45;6.00;;;;;;;;;;5073890;28;20047;-59
2022/11/19 05:23:27;;;;;;;10.73;6.53;;;;;;;;;;5082009;28;20060;-59
2022/11/19 05:25:52;;;;;;;11.65;6.78;;;;;;;;;;5083091;28;20490;-59
2022/11/19 05:28:18;;;;;;;12.70;7.28;;;;;;;;;;5088064;28;20478;-59
2022/11/19 05:30:46;;;;;;;8.73;5.38;;;;;;;;;;5086027;28;20031;-59
2022/11/19 05:33:11;;;;;;;14.02;7.55;;;;;;;;;;5072039;28;20024;-59
2022/11/19 05:35:36;;;;;;;11.63;6.30;;;;;;;;;;5090373;28;20442;-59
2022/11/19 05:38:02;;;;;;;12.05;7.72;;;;;;;;;;5081039;28;20350;-58
2022/11/19 05:40:27;;;;;;;12.73;7.38;;;;;;;;;;5075431;28;20382;-58
2022/11/19 05:42:52;;;;;;;14.45;7.90;;;;;;;;;;5080664;28;20036;-58
2022/11/19 05:45:17;;;;;;;11.07;6.68;;;;;;;;;;5079572;28;20016;-59
2022/11/19 05:47:43;;;;;;;18.90;7.45;;;;;;;;;;5098820;28;20485;-59
2022/11/19 05:50:08;;;;;;;13.68;7.85;;;;;;;;;;5077867;28;20012;-58
2022/11/19 05:52:33;;;;;;;13.75;8.10;;;;;;;;;;5081561;28;20024;-59
2022/11/19 05:54:59;;;;;;;12.48;7.60;;;;;;;;;;5089981;28;20152;-58
2022/11/19 05:57:24;;;;;;;11.07;6.63;;;;;;;;;;5079909;28;20361;-61
2022/11/19 05:59:49;;;;;;;12.85;7.82;;;;;;;;;;5081270;28;20023;-58
2022/11/19 06:02:14;;;;;;;14.63;8.13;;;;;;;;;;5075197;28;20037;-58
2022/11/19 06:04:40;;;;;;;11.70;7.57;;;;;;;;;;5081094;28;20024;-58
2022/11/19 06:07:05;;;;;;;16.00;8.73;;;;;;;;;;5079040;28;20052;-58
2022/11/19 06:09:31;;;;;;;9.57;5.82;;;;;;;;;;5074532;28;20024;-59
2022/11/19 06:11:56;;;;;;;11.20;6.15;;;;;;;;;;5092474;28;20027;-59
2022/11/19 06:14:22;;;;;;;13.88;8.18;;;;;;;;;;5076782;28;20052;-58
2022/11/19 06:16:51;;;;;;;15.80;8.50;;;;;;;;;;5080844;28;20016;-59
2022/11/19 06:19:17;;;;;;;14.50;8.13;;;;;;;;;;5081972;28;20077;-59
2022/11/19 06:21:42;;;;;;;12.25;7.60;;;;;;;;;;5076810;28;20027;-59
2022/11/19 06:24:07;;;;;;;11.68;7.20;;;;;;;;;;5086235;28;20164;-59
2022/11/19 06:26:32;;;;;;;14.02;8.20;;;;;;;;;;5085355;28;20041;-59
2022/11/19 06:28:58;;;;;;;15.52;8.77;;;;;;;;;;5082300;28;20051;-59
2022/11/19 06:31:23;;;;;;;11.98;6.72;;;;;;;;;;5079822;28;20031;-59
2022/11/19 06:33:48;;;;;;;13.23;7.25;;;;;;;;;;5076147;28;20356;-59
2022/11/19 06:36:13;;;;;;;10.57;6.80;;;;;;;;;;5079956;28;20273;-59
2022/11/19 06:38:39;;;;;;;11.70;7.20;;;;;;;;;;5081399;28;20372;-59
2022/11/19 06:41:04;;;;;;;12.02;6.93;;;;;;;;;;5075096;28;20111;-59
2022/11/19 06:43:29;;;;;;;10.95;6.90;;;;;;;;;;5081540;28;20111;-58
2022/11/19 06:45:54;;;;;;;13.82;7.60;;;;;;;;;;5081246;28;20455;-58
2022/11/19 06:48:20;;;;;;;11.65;6.25;;;;;;;;;;5085180;28;20610;-58
2022/11/19 06:50:45;;;;;;;12.07;6.30;;;;;;;;;;5078549;28;20028;-58
2022/11/19 06:53:10;;;;;;;10.05;6.15;;;;;;;;;;5077976;28;20032;-59
2022/11/19 06:55:35;;;;;;;10.70;6.55;;;;;;;;;;5087043;28;20350;-58
2022/11/19 06:58:01;;;;;;;10.70;6.43;;;;;;;;;;5068485;28;20093;-58
2022/11/19 07:00:27;;;;;;;10.00;5.90;;;;;;;;;;5075107;28;20020;-58
2022/11/19 07:02:52;;;;;;;12.23;6.75;;;;;;;;;;5074183;28;20500;-58
2022/11/19 07:05:17;;;;;;;10.90;6.07;;;;;;;;;;5082163;28;20450;-58
2022/11/19 07:07:42;;;;;;;10.90;7.03;;;;;;;;;;5089100;28;20075;-58
2022/11/19 07:10:08;;;;;;;11.63;7.53;;;;;;;;;;5074215;28;20020;-58
2022/11/19 07:12:33;;;;;;;14.27;8.77;;;;;;;;;;5087054;28;20027;-58
2022/11/19 07:14:58;;;;;;;12.85;7.70;;;;;;;;;;5072248;28;20032;-58
2022/11/19 07:17:23;;;;;;;13.65;8.30;;;;;;;;;;5099018;28;20223;-58
2022/11/19 07:19:49;;;;;;;19.38;8.85;;;;;;;;;;5088875;28;20028;-58
2022/11/19 07:22:14;;;;;;;15.38;8.60;;;;;;;;;;5079649;28;20499;-58
2022/11/19 07:24:39;;;;;;;12.52;8.07;;;;;;;;;;5083162;28;20085;-58
2022/11/19 07:27:04;;;;;;;16.15;8.95;;;;;;;;;;5077142;28;20108;-58
2022/11/19 07:29:30;;;;;;;18.25;9.13;;;;;;;;;;5079197;28;20027;-58
2022/11/19 07:31:55;;;;;;;13.52;8.52;;;;;;;;;;5088180;28;20397;-58
2022/11/19 07:34:20;;;;;;;15.85;9.82;;;;;;;;;;5079682;28;20459;-58
2022/11/19 07:36:46;;;;;;;19.27;10.82;;;;;;;;;;5078166;28;20055;-58
2022/11/19 07:39:11;;;;;;;15.43;9.20;;;;;;;;;;5077900;28;20638;-58
2022/11/19 07:44:20;;;;;;;23.83;12.23;;;;;;;;;;5074067;28;20088;-58
2022/11/19 07:46:46;;;;;;;14.00;8.60;;;;;;;;;;5068371;28;20482;-58
2022/11/19 07:49:11;;;;;;;16.38;9.95;;;;;;;;;;5077239;28;20389;-58
2022/11/19 07:51:36;;;;;;;17.40;11.02;;;;;;;;;;5087177;28;20044;-58
2022/11/19 07:54:02;;;;;;;22.95;13.27;;;;;;;;;;5093235;28;20023;-59
2022/11/19 07:56:27;;;;;;;24.27;13.48;;;;;;;;;;5088039;28;20021;-59
2022/11/19 07:58:52;;;;;;;18.88;10.23;;;;;;;;;;5083908;28;20027;-58
2022/11/19 08:01:21;;;;;;;19.35;10.75;;;;;;;;;;5093023;28;20039;-58
2022/11/19 08:03:46;;;;;;;20.73;11.07;;;;;;;;;;5082137;28;20031;-58
2022/11/19 08:06:12;;;;;;;17.30;9.38;;;;;;;;;;5084528;28;20063;-58
2022/11/19 08:08:37;;;;;;;14.48;9.02;;;;;;;;;;5081954;28;20509;-58
2022/11/19 08:11:06;;;;;;;14.65;8.68;;;;;;;;;;5084031;28;20493;-58
2022/11/19 08:13:31;;;;;;;15.30;9.15;;;;;;;;;;5084366;28;20315;-58
2022/11/19 08:16:00;;;;;;;12.98;8.43;;;;;;;;;;5079603;28;20024;-58
2022/11/19 08:18:25;;;;;;;14.65;8.50;;;;;;;;;;5075836;28;20036;-58
2022/11/19 08:20:50;;;;;;;16.13;8.43;;;;;;;;;;5082533;28;20032;-58
2022/11/19 08:23:16;;;;;;;24.38;13.23;;;;;;;;;;5078016;28;20024;-57
2022/11/19 08:25:41;;;;;;;15.52;9.38;;;;;;;;;;5087952;28;20112;-58
2022/11/19 08:28:07;;;;;;;11.88;7.18;;;;;;;;;;5088224;28;20024;-58
2022/11/19 08:30:32;;;;;;;12.02;6.97;;;;;;;;;;5092237;28;20028;-57
2022/11/19 08:32:57;;;;;;;12.48;7.18;;;;;;;;;;5076761;28;20059;-58
2022/11/19 08:35:23;;;;;;;14.57;8.30;;;;;;;;;;5091049;28;20023;-58
2022/11/19 08:37:48;;;;;;;12.05;7.10;;;;;;;;;;5086901;28;20024;-58
2022/11/19 08:40:14;;;;;;;11.45;7.13;;;;;;;;;;5081140;28;20032;-58
2022/11/19 08:45:25;;;;;;;13.00;7.10;;;;;;;;;;5073574;28;20528;-58
2022/11/19 08:47:50;;;;;;;10.77;6.85;;;;;;;;;;5084620;28;20024;-58
2022/11/19 08:50:16;;;;;;;9.80;6.45;;;;;;;;;;5084957;28;20038;-58
2022/11/19 08:52:41;;;;;;;8.02;4.78;;;;;;;;;;5082490;28;20085;-58
2022/11/19 08:55:07;;;;;;;8.15;4.90;;;;;;;;;;5083958;28;20424;-58
2022/11/19 08:57:32;;;;;;;7.88;4.75;;;;;;;;;;5083341;28;20523;-58
2022/11/19 08:59:57;;;;;;;9.38;5.15;;;;;;;;;;5091457;28;20066;-58
2022/11/19 09:02:23;;;;;;;8.50;5.07;;;;;;;;;;5086126;28;20024;-58
2022/11/19 09:04:48;;;;;;;9.38;5.30;;;;;;;;;;5086180;28;20161;-58
2022/11/19 09:07:13;;;;;;;7.43;4.63;;;;;;;;;;5080579;28;20052;-58
2022/11/19 09:09:38;;;;;;;8.80;5.80;;;;;;;;;;5084768;28;20354;-58
2022/11/19 09:12:04;;;;;;;9.63;5.95;;;;;;;;;;5087383;28;20039;-58
2022/11/19 09:14:29;;;;;;;9.82;5.47;;;;;;;;;;5080947;28;20020;-58
2022/11/19 09:16:54;;;;;;;8.32;4.75;;;;;;;;;;5070779;28;20131;-59
2022/11/19 09:19:19;;;;;;;10.10;6.13;;;;;;;;;;5067994;28;20115;-58
2022/11/19 09:21:45;;;;;;;8.27;4.97;;;;;;;;;;5072651;28;20043;-58
2022/11/19 09:24:10;;;;;;;9.45;5.97;;;;;;;;;;5092332;28;20030;-58
2022/11/19 09:26:35;;;;;;;10.45;6.55;;;;;;;;;;5079524;28;20360;-58
2022/11/19 09:29:01;;;;;;;12.98;7.15;;;;;;;;;;5080717;28;20028;-58
2022/11/19 09:31:26;;;;;;;11.45;6.28;;;;;;;;;;5073590;28;20028;-58
2022/11/19 09:33:52;;;;;;;19.25;8.20;;;;;;;;;;5087193;28;20023;-58
2022/11/19 09:36:18;;;;;;;13.88;7.50;;;;;;;;;;5080625;28;20308;-58
2022/11/19 09:38:43;;;;;;;11.75;7.20;;;;;;;;;;5081931;28;20413;-58
2022/11/19 09:41:29;;;;;;;11.48;6.32;;;;;;;;;;5069379;28;20203;-58
2022/11/19 09:43:57;;;;;;;11.10;6.00;;;;;;;;;;5088426;28;20510;-58
2022/11/19 09:46:31;;;;;;;10.80;6.90;;;;;;;;;;5084682;28;20102;-58
2022/11/19 09:48:58;;;;;;;9.48;6.40;;;;;;;;;;5081625;28;20389;-59
2022/11/19 09:51:27;;;;;;;8.93;5.55;;;;;;;;;;5078531;28;20363;-58
2022/11/19 09:53:58;;;;;;;11.38;6.72;;;;;;;;;;5078750;28;20376;-58
2022/11/19 09:56:28;;;;;;;11.75;6.35;;;;;;;;;;5084105;28;20050;-58
2022/11/19 09:58:53;;;;;;;12.00;6.63;;;;;;;;;;5073600;28;20256;-59
2022/11/19 10:01:18;;;;;;;14.43;7.43;;;;;;;;;;5081263;28;20036;-58
2022/11/19 10:03:45;;;;;;;17.95;9.15;;;;;;;;;;5082080;28;20016;-58
2022/11/19 10:06:13;;;;;;;11.90;7.03;;;;;;;;;;5093573;27;20109;-58
2022/11/19 10:08:57;;;;;;;14.55;6.78;;;;;;;;;;5074271;28;20020;-58
2022/11/19 10:11:27;;;;;;;16.42;9.00;;;;;;;;;;5074765;28;20028;-58
2022/11/19 10:14:02;;;;;;;17.60;9.18;;;;;;;;;;5070906;28;20039;-59
2022/11/19 10:16:27;;;;;;;13.00;7.63;;;;;;;;;;5109409;27;20039;-58
2022/11/19 10:18:56;;;;;;;17.17;10.20;;;;;;;;;;5071827;28;20094;-58
2022/11/19 10:21:22;;;;;;;16.65;9.30;;;;;;;;;;5071230;28;20509;-59
2022/11/19 10:23:51;;;;;;;19.02;10.50;;;;;;;;;;5078979;28;20039;-58
2022/11/19 10:26:18;;;;;;;17.33;10.05;;;;;;;;;;5081551;28;20024;-58
2022/11/19 10:28:53;;;;;;;18.13;10.45;;;;;;;;;;5078535;28;20505;-58
2022/11/19 10:31:21;;;;;;;14.27;9.00;;;;;;;;;;5069769;28;20028;-59
2022/11/19 10:33:50;;;;;;;20.73;10.90;;;;;;;;;;5071802;28;20389;-58
2022/11/19 10:36:18;;;;;;;25.98;13.88;;;;;;;;;;5063101;28;20146;-58
2022/11/19 10:38:46;;;;;;;28.52;16.35;;;;;;;;;;5063959;28;20020;-58
2022/11/19 10:41:41;;;;;;;21.23;12.07;;;;;;;;;;5075629;28;20028;-58
2022/11/19 10:44:39;;;;;;;19.88;11.52;;;;;;;;;;5064114;28;20565;-58
2022/11/19 10:47:19;;;;;;;18.08;9.80;;;;;;;;;;5080886;28;20023;-58
2022/11/19 10:49:45;;;;;;;20.77;11.55;;;;;;;;;;5077003;28;20028;-58
2022/11/19 10:52:16;;;;;;;21.10;10.98;;;;;;;;;;5069424;28;20036;-58
2022/11/19 10:54:41;;;;;;;22.92;11.45;;;;;;;;;;5075377;28;20024;-58
2022/11/19 10:57:06;;;;;;;29.15;14.45;;;;;;;;;;5109197;27;20201;-59
2022/11/19 10:59:31;;;;;;;30.35;15.45;;;;;;;;;;5063205;28;20114;-58
2022/11/19 11:02:01;;;;;;;19.33;10.75;;;;;;;;;;5077811;28;20118;-58
2022/11/19 11:04:27;;;;;;;17.77;10.25;;;;;;;;;;5104577;27;20105;-58
2022/11/19 11:06:56;;;;;;;20.77;11.93;;;;;;;;;;5077160;28;20331;-58
2022/11/19 11:09:31;;;;;;;20.33;10.80;;;;;;;;;;5077397;28;20387;-58
2022/11/19 11:15:17;;;;;;;22.20;11.25;;;;;;;;;;5049260;28;20102;-58
2022/11/19 11:17:44;;;;;;;20.90;10.88;;;;;;;;;;5063502;28;20074;-57
2022/11/19 11:20:16;;;;;;;22.30;12.40;;;;;;;;;;5067654;28;20510;-58
2022/11/19 11:22:41;;;;;;;21.35;12.38;;;;;;;;;;5083666;28;20106;-58
2022/11/19 11:25:27;;;;;;;26.27;13.60;;;;;;;;;;5078916;28;20147;-57
2022/11/19 11:28:12;;;;;;;21.10;11.05;;;;;;;;;;5069679;28;20032;-57
2022/11/19 11:30:37;;;;;;;23.90;11.60;;;;;;;;;;5087545;28;20707;-58
2022/11/19 11:33:29;;;;;;;21.83;11.95;;;;;;;;;;5082556;28;20270;-58
2022/11/19 11:35:54;;;;;;;22.50;12.75;;;;;;;;;;5070078;28;20473;-58
2022/11/19 11:38:21;;;;;;;23.02;11.88;;;;;;;;;;5070575;28;20021;-58
2022/11/19 11:40:58;;;;;;;27.35;14.10;;;;;;;;;;5074325;28;20027;-58
2022/11/19 11:43:24;;;;;;;21.35;11.48;;;;;;;;;;5073724;28;20039;-58
2022/11/19 11:45:54;;;;;;;26.90;14.13;;;;;;;;;;5072974;28;20024;-58
2022/11/19 11:48:19;;;;;;;26.73;13.35;;;;;;;;;;5110906;27;20016;-57
2022/11/19 11:50:44;;;;;;;26.73;12.63;;;;;;;;;;5080679;28;20024;-58
2022/11/19 11:53:13;;;;;;;25.58;13.35;;;;;;;;;;5075027;28;20028;-58
2022/11/19 11:55:38;;;;;;;25.92;14.18;;;;;;;;;;5074207;28;20472;-58
2022/11/19 11:58:04;;;;;;;24.25;12.82;;;;;;;;;;5070290;28;20301;-58
2022/11/19 12:00:32;;;;;;;22.42;11.57;;;;;;;;;;5074141;28;20036;-58
2022/11/19 12:03:07;;;;;;;21.35;11.07;;;;;;;;;;5082597;28;20044;-58
2022/11/19 12:05:39;;;;;;;20.77;11.25;;;;;;;;;;5084875;28;20047;-58
2022/11/19 12:08:13;;;;;;;20.65;11.27;;;;;;;;;;5081705;28;20048;-58
2022/11/19 12:10:44;;;;;;;20.52;10.07;;;;;;;;;;5075681;28;20099;-58
2022/11/19 12:13:18;;;;;;;19.33;10.32;;;;;;;;;;5079463;28;20023;-58
2022/11/19 12:15:59;;;;;;;17.20;9.45;;;;;;;;;;5074230;28;20094;-58
2022/11/19 12:18:28;;;;;;;20.90;11.65;;;;;;;;;;5077538;28;20299;-58
2022/11/19 12:20:59;;;;;;;19.20;10.90;;;;;;;;;;5084212;28;20977;-58
2022/11/19 12:23:27;;;;;;;23.27;11.63;;;;;;;;;;5080220;28;20039;-58
2022/11/19 12:26:11;;;;;;;18.33;10.85;;;;;;;;;;5076557;28;20696;-57
2022/11/19 12:28:55;;;;;;;20.25;10.30;;;;;;;;;;5076880;28;20067;-57
2022/11/19 12:31:24;;;;;;;23.05;11.80;;;;;;;;;;5071584;28;20530;-57
2022/11/19 12:33:52;;;;;;;22.15;12.00;;;;;;;;;;5086694;28;20445;-59
2022/11/19 12:36:36;;;;;;;18.88;10.13;;;;;;;;;;5069995;28;20460;-57
2022/11/19 12:39:02;;;;;;;17.05;9.50;;;;;;;;;;5078813;28;20055;-59
2022/11/19 12:41:37;;;;;;;21.92;12.13;;;;;;;;;;5111387;27;20054;-57
2022/11/19 12:44:05;;;;;;;21.85;11.55;;;;;;;;;;5087629;28;20683;-57
2022/11/19 12:46:50;;;;;;;20.00;11.25;;;;;;;;;;5116910;27;20078;-57
2022/11/19 12:49:34;;;;;;;22.55;11.73;;;;;;;;;;5085101;28;20526;-57
2022/11/19 12:51:59;;;;;;;21.63;10.95;;;;;;;;;;5086143;28;20089;-57
2022/11/19 12:54:34;;;;;;;21.58;12.02;;;;;;;;;;5075996;28;20063;-57
2022/11/19 12:57:08;;;;;;;25.38;13.00;;;;;;;;;;5089405;28;20186;-57
2022/11/19 12:59:33;;;;;;;23.48;12.60;;;;;;;;;;5083377;28;20030;-57
2022/11/19 13:01:58;;;;;;;27.17;13.05;;;;;;;;;;5081112;28;20248;-57
2022/11/19 13:04:41;;;;;;;21.42;11.75;;;;;;;;;;5085629;28;20016;-57
2022/11/19 13:07:11;;;;;;;22.80;12.20;;;;;;;;;;5081754;28;20052;-57
2022/11/19 13:09:47;;;;;;;27.20;13.93;;;;;;;;;;5122000;27;20020;-57
2022/11/19 13:12:16;;;;;;;20.00;10.13;;;;;;;;;;5075400;28;20056;-57
2022/11/19 13:14:42;;;;;;;24.75;13.65;;;;;;;;;;5070441;28;20712;-58
2022/11/19 13:17:17;;;;;;;24.92;14.07;;;;;;;;;;5109498;27;20319;-59
2022/11/19 13:19:43;;;;;;;24.65;12.52;;;;;;;;;;5081295;28;20127;-58
2022/11/19 13:22:19;;;;;;;25.73;12.80;;;;;;;;;;5109731;27;20047;-59
2022/11/19 13:24:45;;;;;;;26.42;13.95;;;;;;;;;;5088033;28;20508;-56
2022/11/19 13:27:13;;;;;;;27.42;14.02;;;;;;;;;;5080165;28;20026;-59
2022/11/19 13:29:38;;;;;;;27.38;14.07;;;;;;;;;;5079574;28;20034;-57
2022/11/19 13:32:15;;;;;;;30.25;14.57;;;;;;;;;;5082477;28;20028;-57
2022/11/19 13:34:48;;;;;;;24.02;12.25;;;;;;;;;;5084764;28;20425;-57
2022/11/19 13:37:14;;;;;;;24.20;12.05;;;;;;;;;;5111430;27;20036;-57
2022/11/19 13:39:52;;;;;;;18.42;10.32;;;;;;;;;;5086187;28;20077;-57
2022/11/19 13:45:01;;;;;;;18.38;10.77;;;;;;;;;;5088431;28;20026;-57
2022/11/19 13:47:29;;;;;;;27.20;14.23;;;;;;;;;;5081850;28;20012;-57
2022/11/19 13:49:59;;;;;;;30.05;15.70;;;;;;;;;;5081499;28;20062;-57
2022/11/19 13:52:24;;;;;;;25.08;13.90;;;;;;;;;;5086545;28;20079;-57
2022/11/19 13:54:49;;;;;;;25.45;13.68;;;;;;;;;;5081265;28;20051;-59
2022/11/19 13:57:44;;;;;;;29.42;15.23;;;;;;;;;;5079798;28;20047;-57
2022/11/19 14:00:25;;;;;;;25.85;14.57;;;;;;;;;;5073300;28;20063;-57
2022/11/19 14:03:09;;;;;;;25.58;14.13;;;;;;;;;;5118364;27;20499;-57
2022/11/19 14:05:37;;;;;;;24.65;13.93;;;;;;;;;;5081369;28;20032;-57
2022/11/19 14:08:08;;;;;;;24.70;14.43;;;;;;;;;;5080018;28;20028;-57
2022/11/19 14:10:39;;;;;;;25.85;13.88;;;;;;;;;;5094557;28;20042;-57
2022/11/19 14:13:13;;;;;;;27.75;15.15;;;;;;;;;;5077991;28;20099;-57
2022/11/19 14:27:16;;;;;;;26.42;14.88;;;;;;;;;;5087448;28;20105;-57
2022/11/19 14:29:44;;;;;;;25.90;13.43;;;;;;;;;;5080678;28;20526;-57
2022/11/19 14:32:09;;;;;;;19.98;10.38;;;;;;;;;;5074529;28;20065;-58
2022/11/19 14:34:35;;;;;;;25.90;12.77;;;;;;;;;;5084023;28;20547;-58
2022/11/19 14:37:11;;;;;;;26.77;13.23;;;;;;;;;;5082272;28;20028;-57
2022/11/19 14:39:40;;;;;;;36.08;15.95;;;;;;;;;;5114649;27;20045;-58
2022/11/19 14:42:19;;;;;;;33.67;16.23;;;;;;;;;;5075050;28;20044;-57
2022/11/19 14:44:44;;;;;;;30.00;14.52;;;;;;;;;;5079706;28;20485;-57
2022/11/19 14:47:33;;;;;;;28.33;13.95;;;;;;;;;;5072201;28;20028;-57
2022/11/19 14:49:58;;;;;;;32.15;15.73;;;;;;;;;;5068410;28;20607;-57
2022/11/19 14:52:26;;;;;;;30.77;15.68;;;;;;;;;;5082432;28;20052;-57
2022/11/19 14:54:56;;;;;;;34.55;16.83;;;;;;;;;;5081963;28;20032;-57
2022/11/19 14:57:28;;;;;;;39.53;20.23;;;;;;;;;;5079025;28;20031;-57
2022/11/19 14:59:55;;;;;;;39.88;18.60;;;;;;;;;;5070145;28;20120;-57
2022/11/19 15:02:31;;;;;;;44.25;18.38;;;;;;;;;;5116151;27;20424;-57
2022/11/19 15:05:02;;;;;;;40.47;19.67;;;;;;;;;;5061841;28;20518;-57
2022/11/19 15:07:36;;;;;;;35.60;17.35;;;;;;;;;;5071302;28;20047;-57
2022/11/19 15:10:09;;;;;;;43.33;20.70;;;;;;;;;;5078455;28;20420;-57
2022/11/19 15:12:46;;;;;;;48.65;20.38;;;;;;;;;;5080489;28;20020;-59